createdAt,value
2017-11-14T00:01:15.861Z,51.70
2017-11-14T00:03:43.436Z,49.10
2017-11-14T00:06:10.985Z,72.43
2017-11-14T00:08:38.572Z,84.40
2017-11-14T00:11:06.098Z,53.47
2017-11-14T00:13:33.716Z,66.67
2017-11-14T00:16:01.386Z,55.50
2017-11-14T00:18:28.913Z,47.77
2017-11-14T00:20:56.514Z,51.03
2017-11-14T00:23:24.196Z,49.63
2017-11-14T00:25:51.731Z,39.50
2017-11-14T00:28:19.269Z,43.67
2017-11-14T00:30:46.878Z,34.57
2017-11-14T00:33:14.467Z,43.97
2017-11-14T00:35:42.141Z,42.53
2017-11-14T00:38:09.850Z,45.03
2017-11-14T00:40:37.380Z,41.53
2017-11-14T00:43:04.952Z,43.63
2017-11-14T00:45:32.526Z,44.17
2017-11-14T00:48:00.096Z,41.13
2017-11-14T00:50:27.699Z,47.13
2017-11-14T00:52:55.305Z,46.63
2017-11-14T00:55:22.824Z,53.57
2017-11-14T00:57:50.381Z,55.23
2017-11-14T01:00:17.974Z,59.67
2017-11-14T01:02:45.496Z,49.80
2017-11-14T01:05:13.054Z,43.47
2017-11-14T01:07:40.720Z,33.70
2017-11-14T01:10:08.289Z,34.03
2017-11-14T01:12:35.838Z,43.53
2017-11-14T01:15:03.415Z,43.10
2017-11-14T01:17:31.067Z,40.70
2017-11-14T01:19:58.661Z,36.53
2017-11-14T01:22:26.272Z,48.47
2017-11-14T01:24:53.796Z,42.53
2017-11-14T01:27:21.313Z,38.93
2017-11-14T01:29:48.906Z,45.57
2017-11-14T01:32:16.475Z,41.63
2017-11-14T01:34:44.016Z,42.10
2017-11-14T01:37:11.647Z,46.40
2017-11-14T01:39:39.324Z,40.20
2017-11-14T01:42:06.892Z,42.90
2017-11-14T01:44:34.475Z,40.37
2017-11-14T01:47:02.062Z,36.77
2017-11-14T01:49:29.592Z,38.97
2017-11-14T01:51:57.140Z,42.97
2017-11-14T01:54:24.768Z,40.10
2017-11-14T01:56:52.306Z,42.50
2017-11-14T01:59:19.931Z,40.63
2017-11-14T02:01:47.479Z,42.07
2017-11-14T02:04:15.032Z,35.70
2017-11-14T02:06:42.567Z,36.50
2017-11-14T02:09:10.176Z,40.43
2017-11-14T02:11:37.760Z,39.53
2017-11-14T02:14:05.386Z,45.50
2017-11-14T02:16:32.980Z,45.03
2017-11-14T02:19:00.561Z,38.27
2017-11-14T02:21:28.090Z,40.97
2017-11-14T02:23:55.782Z,42.13
2017-11-14T02:26:23.483Z,39.77
2017-11-14T02:28:51.062Z,43.57
2017-11-14T02:31:18.720Z,39.83
2017-11-14T02:33:46.377Z,43.77
2017-11-14T02:36:13.976Z,40.37
2017-11-14T02:38:41.575Z,39.10
2017-11-14T02:41:09.207Z,40.30
2017-11-14T02:43:36.786Z,38.20
2017-11-14T02:46:04.398Z,37.97
2017-11-14T02:48:31.943Z,39.50
2017-11-14T02:50:59.521Z,36.77
2017-11-14T02:53:27.204Z,39.50
2017-11-14T02:55:54.758Z,35.13
2017-11-14T02:58:22.372Z,42.03
2017-11-14T03:00:50.015Z,44.53
2017-11-14T03:03:17.544Z,34.47
2017-11-14T03:05:46.320Z,42.63
2017-11-14T03:08:13.884Z,39.30
2017-11-14T03:10:41.468Z,40.57
2017-11-14T03:13:09.027Z,36.47
2017-11-14T03:15:36.688Z,39.33
2017-11-14T03:18:04.240Z,37.00
2017-11-14T03:20:31.815Z,37.97
2017-11-14T03:22:59.395Z,38.50
2017-11-14T03:25:26.937Z,36.30
2017-11-14T03:27:54.518Z,47.87
2017-11-14T03:30:22.147Z,37.03
2017-11-14T03:32:49.720Z,40.00
2017-11-14T03:35:17.536Z,39.63
2017-11-14T03:37:45.111Z,36.40
2017-11-14T03:40:12.668Z,44.17
2017-11-14T03:42:40.863Z,39.87
2017-11-14T03:45:08.553Z,40.23
2017-11-14T03:47:36.891Z,42.27
2017-11-14T03:50:04.442Z,44.10
2017-11-14T03:52:32.122Z,42.27
2017-11-14T03:54:59.659Z,46.70
2017-11-14T03:57:27.192Z,52.20
2017-11-14T03:59:54.796Z,55.17
2017-11-14T04:02:22.404Z,60.40
2017-11-14T04:04:49.954Z,68.20
2017-11-14T04:07:17.506Z,56.13
2017-11-14T04:09:45.113Z,57.33
2017-11-14T04:12:12.656Z,56.00
2017-11-14T04:14:40.318Z,51.03
2017-11-14T04:17:07.932Z,53.50
2017-11-14T04:19:35.478Z,55.77
2017-11-14T04:22:03.100Z,50.63
2017-11-14T04:24:30.720Z,52.87
2017-11-14T04:26:58.327Z,48.60
2017-11-14T04:29:25.848Z,44.93
2017-11-14T04:31:53.440Z,38.43
2017-11-14T04:34:20.971Z,41.83
2017-11-14T04:36:48.503Z,49.20
2017-11-14T04:39:16.134Z,43.87
2017-11-14T04:41:43.681Z,44.40
2017-11-14T04:44:11.248Z,50.37
2017-11-14T04:46:38.835Z,50.60
2017-11-14T04:49:06.400Z,43.03
2017-11-14T04:51:34.181Z,45.60
2017-11-14T04:54:01.755Z,47.90
2017-11-14T04:56:29.270Z,49.07
2017-11-14T04:58:56.845Z,45.67
2017-11-14T05:01:24.450Z,48.77
2017-11-14T05:03:52.002Z,49.90
2017-11-14T05:06:19.555Z,50.87
2017-11-14T05:08:48.016Z,45.30
2017-11-14T05:11:15.637Z,48.27
2017-11-14T05:13:43.167Z,44.47
2017-11-14T05:16:10.797Z,43.80
2017-11-14T05:18:38.376Z,52.47
2017-11-14T05:21:06.154Z,52.97
2017-11-14T05:23:33.782Z,53.03
2017-11-14T05:26:01.309Z,47.13
2017-11-14T05:28:28.952Z,45.60
2017-11-14T05:30:56.588Z,48.80
2017-11-14T05:33:24.174Z,46.63
2017-11-14T05:35:51.699Z,48.70
2017-11-14T05:38:19.383Z,46.97
2017-11-14T05:40:47.148Z,50.70
2017-11-14T05:43:14.677Z,52.40
2017-11-14T05:45:42.404Z,78.10
2017-11-14T05:48:09.936Z,61.77
2017-11-14T05:50:37.614Z,69.00
2017-11-14T05:53:05.244Z,48.17
2017-11-14T05:55:32.930Z,55.83
2017-11-14T05:58:00.539Z,53.10
2017-11-14T06:00:28.174Z,54.67
2017-11-14T06:02:55.749Z,54.03
2017-11-14T06:05:23.538Z,56.83
2017-11-14T06:07:51.120Z,50.53
2017-11-14T06:10:18.731Z,49.30
2017-11-14T06:12:46.353Z,39.60
2017-11-14T06:15:14.028Z,56.40
2017-11-14T06:17:41.623Z,47.10
2017-11-14T06:20:09.214Z,46.70
2017-11-14T06:22:36.826Z,48.70
2017-11-14T06:25:05.522Z,46.97
2017-11-14T06:27:33.150Z,51.47
2017-11-14T06:30:00.770Z,46.03
2017-11-14T06:32:28.445Z,41.60
2017-11-14T06:34:55.993Z,41.73
2017-11-14T06:37:23.548Z,43.73
2017-11-14T06:39:51.626Z,44.70
2017-11-14T06:42:19.153Z,36.07
2017-11-14T06:44:46.731Z,34.93
2017-11-14T06:47:14.306Z,37.47
2017-11-14T06:49:41.856Z,39.63
2017-11-14T06:52:09.424Z,38.10
2017-11-14T06:54:37.051Z,37.87
2017-11-14T06:57:04.621Z,39.60
2017-11-14T06:59:32.466Z,37.00
2017-11-14T07:02:00.097Z,37.20
2017-11-14T07:04:27.686Z,48.83
2017-11-14T07:06:55.271Z,45.17
2017-11-14T07:09:22.884Z,43.70
2017-11-14T07:11:50.482Z,46.10
2017-11-14T07:14:18.055Z,36.07
2017-11-14T07:16:45.849Z,38.73
2017-11-14T07:19:13.440Z,37.70
2017-11-14T07:21:41.060Z,38.87
2017-11-14T07:24:08.665Z,32.90
2017-11-14T07:26:36.419Z,38.90
2017-11-14T07:29:04.016Z,30.50
2017-11-14T07:31:31.641Z,39.60
2017-11-14T07:33:59.321Z,36.00
2017-11-14T07:36:26.947Z,33.27
2017-11-14T07:38:54.555Z,31.60
2017-11-14T07:41:22.140Z,36.27
2017-11-14T07:43:49.691Z,32.20
2017-11-14T07:46:17.304Z,30.17
2017-11-14T07:48:44.824Z,35.47
2017-11-14T07:51:12.423Z,24.87
2017-11-14T07:53:40.219Z,23.00
2017-11-14T07:56:07.835Z,29.80
2017-11-14T07:58:35.418Z,22.37
2017-11-14T08:01:03.039Z,22.43
2017-11-14T08:03:31.559Z,23.20
2017-11-14T08:05:59.447Z,35.30
2017-11-14T08:08:27.138Z,28.10
2017-11-14T08:10:54.834Z,29.03
2017-11-14T08:13:22.453Z,32.90
2017-11-14T08:15:50.110Z,29.03
2017-11-14T08:18:17.674Z,32.03
2017-11-14T08:20:45.316Z,35.43
2017-11-14T08:23:12.910Z,29.03
2017-11-14T08:25:40.477Z,27.73
2017-11-14T08:28:08.065Z,31.57
2017-11-14T08:30:35.680Z,36.13
2017-11-14T08:33:04.054Z,25.97
2017-11-14T08:35:32.329Z,21.23
2017-11-14T08:38:00.086Z,17.87
2017-11-14T08:40:28.556Z,25.83
2017-11-14T08:42:56.134Z,20.33
2017-11-14T08:45:23.804Z,21.23
2017-11-14T08:47:51.512Z,20.40
2017-11-14T08:50:19.091Z,20.90
2017-11-14T08:52:46.718Z,18.23
2017-11-14T08:55:14.307Z,22.93
2017-11-14T08:57:42.175Z,24.87
2017-11-14T09:00:11.333Z,17.40
2017-11-14T09:02:38.920Z,15.93
2017-11-14T09:05:07.552Z,18.37
2017-11-14T09:07:38.336Z,21.80
2017-11-14T09:10:08.249Z,20.10
2017-11-14T09:12:37.507Z,14.53
2017-11-14T09:15:06.393Z,16.40
2017-11-14T09:17:35.432Z,18.03
2017-11-14T09:20:04.496Z,19.03
2017-11-14T09:22:33.436Z,14.60
2017-11-14T09:25:01.088Z,19.10
2017-11-14T09:27:29.498Z,18.90
2017-11-14T09:29:57.179Z,15.97
2017-11-14T09:32:24.826Z,14.20
2017-11-14T09:34:52.466Z,16.97
2017-11-14T09:37:20.102Z,13.33
2017-11-14T09:39:48.547Z,18.13
2017-11-14T09:42:17.971Z,17.10
2017-11-14T09:44:46.613Z,15.20
2017-11-14T09:47:14.871Z,17.47
2017-11-14T09:49:44.694Z,20.93
2017-11-14T09:52:12.309Z,25.70
2017-11-14T09:54:40.057Z,16.20
2017-11-14T09:57:08.057Z,20.10
2017-11-14T09:59:35.695Z,23.50
2017-11-14T10:02:03.303Z,20.20
2017-11-14T10:04:31.203Z,20.50
2017-11-14T10:06:58.898Z,26.57
2017-11-14T10:09:26.544Z,23.67
2017-11-14T10:11:54.148Z,16.20
2017-11-14T10:14:21.979Z,16.43
2017-11-14T10:16:49.799Z,13.90
2017-11-14T10:19:17.422Z,15.20
2017-11-14T10:21:45.014Z,17.10
2017-11-14T10:24:12.679Z,21.77
2017-11-14T10:26:40.507Z,12.97
2017-11-14T10:29:08.259Z,15.37
2017-11-14T10:31:36.012Z,20.93
2017-11-14T10:34:03.926Z,20.70
2017-11-14T10:36:31.616Z,30.00
2017-11-14T10:38:59.329Z,32.80
2017-11-14T10:41:26.939Z,34.00
2017-11-14T10:43:54.540Z,20.93
2017-11-14T10:46:22.226Z,23.70
2017-11-14T10:48:49.846Z,22.07
2017-11-14T10:51:17.491Z,21.40
2017-11-14T10:53:45.139Z,26.83
2017-11-14T10:56:12.776Z,18.27
2017-11-14T10:58:40.357Z,23.03
2017-11-14T11:01:07.968Z,22.97
2017-11-14T11:03:35.563Z,22.73
2017-11-14T11:06:06.036Z,19.73
2017-11-14T11:08:33.728Z,20.30
2017-11-14T11:11:01.657Z,23.37
2017-11-14T11:13:29.357Z,19.17
2017-11-14T11:15:57.003Z,24.47
2017-11-14T11:18:24.573Z,25.97
2017-11-14T11:20:52.219Z,22.70
2017-11-14T11:23:20.720Z,20.80
2017-11-14T11:25:48.465Z,24.67
2017-11-14T11:28:16.539Z,21.80
2017-11-14T11:30:44.236Z,23.73
2017-11-14T11:33:11.988Z,22.17
2017-11-14T11:35:39.631Z,23.73
2017-11-14T11:38:07.283Z,20.00
2017-11-14T11:40:34.965Z,17.63
2017-11-14T11:43:03.622Z,24.27
2017-11-14T11:45:31.270Z,26.67
2017-11-14T11:47:58.896Z,18.80
2017-11-14T11:50:27.293Z,19.83
2017-11-14T11:52:54.954Z,19.10
2017-11-14T11:55:22.758Z,19.67
2017-11-14T11:57:51.048Z,25.87
2017-11-14T12:00:18.810Z,20.77
2017-11-14T12:02:47.199Z,20.33
2017-11-14T12:05:14.886Z,22.70
2017-11-14T12:07:42.579Z,25.70
2017-11-14T12:10:10.277Z,22.53
2017-11-14T12:12:37.926Z,17.37
2017-11-14T12:15:05.885Z,18.57
2017-11-14T12:17:38.370Z,22.17
2017-11-14T12:20:06.952Z,20.70
2017-11-14T12:22:34.771Z,25.50
2017-11-14T12:25:02.436Z,17.33
2017-11-14T12:27:30.066Z,19.07
2017-11-14T12:29:57.636Z,18.77
2017-11-14T12:32:25.415Z,19.20
2017-11-14T12:34:53.023Z,24.63
2017-11-14T12:37:21.272Z,22.47
2017-11-14T12:39:49.468Z,24.60
2017-11-14T12:42:17.192Z,18.63
2017-11-14T12:44:45.916Z,24.70
2017-11-14T12:47:13.624Z,23.80
2017-11-14T12:49:41.345Z,21.77
2017-11-14T12:52:09.335Z,31.83
2017-11-14T12:54:37.067Z,18.63
2017-11-14T12:57:05.563Z,17.17
2017-11-14T12:59:33.351Z,15.80
2017-11-14T13:02:01.008Z,19.97
2017-11-14T13:04:28.786Z,20.17
2017-11-14T13:06:56.537Z,19.00
2017-11-14T13:09:24.160Z,22.80
2017-11-14T13:11:51.979Z,19.40
2017-11-14T13:14:20.320Z,18.00
2017-11-14T13:16:47.978Z,19.40
2017-11-14T13:19:15.595Z,22.43
2017-11-14T13:21:43.243Z,23.87
2017-11-14T13:24:12.854Z,19.30
2017-11-14T13:26:40.694Z,22.77
2017-11-14T13:29:08.738Z,19.47
2017-11-14T13:31:37.351Z,20.23
2017-11-14T13:34:04.998Z,20.00
2017-11-14T13:36:34.811Z,19.20
2017-11-14T13:39:02.641Z,19.50
2017-11-14T13:41:30.383Z,22.87
2017-11-14T13:44:00.969Z,25.07
2017-11-14T13:46:28.675Z,19.03
2017-11-14T13:48:56.805Z,28.23
2017-11-14T13:51:24.897Z,24.67
2017-11-14T13:53:53.308Z,23.70
2017-11-14T13:56:20.875Z,25.00
2017-11-14T13:58:48.618Z,24.77
2017-11-14T14:01:17.110Z,23.00
2017-11-14T14:03:45.542Z,21.20
2017-11-14T14:06:15.569Z,18.57
2017-11-14T14:08:57.795Z,25.50
2017-11-14T14:11:27.611Z,21.47
2017-11-14T14:16:38.852Z,19.40
2017-11-14T14:19:10.539Z,23.70
2017-11-14T14:21:39.029Z,23.13
2017-11-14T14:24:06.776Z,23.23
2017-11-14T14:26:34.611Z,27.00
2017-11-14T14:32:18.092Z,17.93
2017-11-14T14:34:48.229Z,24.70
2017-11-14T14:37:16.592Z,21.13
2017-11-14T14:39:47.390Z,36.30
2017-11-14T14:42:15.171Z,25.30
2017-11-14T14:44:43.826Z,24.83
2017-11-14T14:47:11.648Z,24.93
2017-11-14T14:49:47.462Z,27.30
2017-11-14T14:52:15.776Z,32.23
2017-11-14T14:54:44.812Z,29.63
2017-11-14T14:57:13.419Z,29.53
2017-11-14T14:59:41.756Z,29.30
2017-11-14T15:02:20.462Z,32.80
2017-11-14T15:04:50.092Z,32.67
2017-11-14T15:07:23.811Z,30.77
2017-11-14T15:09:57.946Z,27.43
2017-11-14T15:19:08.871Z,20.60
2017-11-14T15:21:40.566Z,30.60
2017-11-14T15:24:08.160Z,31.73
2017-11-14T15:27:03.980Z,25.30
2017-11-14T15:29:34.637Z,23.13
2017-11-14T15:32:07.007Z,34.57
2017-11-14T15:34:34.947Z,29.40
2017-11-14T15:37:02.601Z,23.33
2017-11-14T15:39:30.178Z,30.77
2017-11-14T15:41:57.743Z,26.47
2017-11-14T15:44:25.412Z,30.43
2017-11-14T15:46:53.523Z,30.80
2017-11-14T15:49:21.300Z,31.77
2017-11-14T15:51:49.081Z,28.70
2017-11-14T15:54:16.837Z,35.07
2017-11-14T15:56:44.400Z,27.00
2017-11-14T15:59:12.085Z,27.50
2017-11-14T16:01:39.765Z,28.43
2017-11-14T16:04:07.516Z,24.90
2017-11-14T16:06:35.079Z,25.73
2017-11-14T16:09:02.759Z,27.40
2017-11-14T16:11:30.583Z,23.50
2017-11-14T16:13:58.155Z,25.83
2017-11-14T16:16:31.927Z,27.10
2017-11-14T16:18:59.790Z,28.93
2017-11-14T16:21:27.450Z,31.80
2017-11-14T16:23:55.247Z,27.13
2017-11-14T16:26:22.808Z,30.43
2017-11-14T16:28:50.471Z,30.57
2017-11-14T16:31:18.229Z,34.80
2017-11-14T16:33:46.040Z,39.20
2017-11-14T16:36:13.625Z,33.63
2017-11-14T16:38:41.346Z,32.50
2017-11-14T16:41:08.983Z,35.83
2017-11-14T16:43:36.615Z,30.07
2017-11-14T16:46:04.566Z,35.80
2017-11-14T16:48:32.153Z,34.70
2017-11-14T16:51:00.280Z,35.80
2017-11-14T16:53:27.973Z,34.80
2017-11-14T16:55:55.658Z,34.20
2017-11-14T16:58:23.286Z,36.30
2017-11-14T17:00:50.959Z,36.07
2017-11-14T17:03:18.606Z,29.93
2017-11-14T17:05:46.288Z,34.33
2017-11-14T17:08:13.967Z,38.03
2017-11-14T17:10:41.565Z,33.07
2017-11-14T17:13:09.302Z,30.53
2017-11-14T17:15:36.925Z,28.47
2017-11-14T17:18:04.564Z,35.33
2017-11-14T17:20:32.619Z,33.87
2017-11-14T17:23:17.622Z,37.03
2017-11-14T17:25:45.329Z,32.73
2017-11-14T17:28:12.886Z,32.57
2017-11-14T17:30:40.572Z,34.97
2017-11-14T17:33:08.095Z,30.70
2017-11-14T17:35:35.710Z,41.90
2017-11-14T17:38:03.393Z,34.00
2017-11-14T17:40:31.127Z,32.20
2017-11-14T17:42:59.003Z,27.57
2017-11-14T17:45:27.507Z,29.97
2017-11-14T17:47:55.100Z,29.23
2017-11-14T17:50:22.652Z,32.07
2017-11-14T17:52:50.300Z,36.80
2017-11-14T17:55:18.112Z,35.03
2017-11-14T17:57:45.911Z,40.77
2017-11-14T18:00:13.634Z,34.93
2017-11-14T18:02:41.328Z,29.53
2017-11-14T18:05:09.899Z,31.90
2017-11-14T18:07:37.608Z,24.90
2017-11-14T18:10:05.250Z,31.23
2017-11-14T18:12:34.617Z,26.07
2017-11-14T18:15:02.280Z,32.70
2017-11-14T18:17:29.860Z,27.70
2017-11-14T18:19:57.470Z,26.63
2017-11-14T18:22:25.070Z,29.83
2017-11-14T18:24:52.610Z,28.93
2017-11-14T18:27:20.221Z,24.30
2017-11-14T18:29:47.929Z,25.60
2017-11-14T18:32:15.619Z,28.40
2017-11-14T18:34:43.203Z,37.73
2017-11-14T18:37:15.607Z,30.30
2017-11-14T18:39:43.279Z,32.67
2017-11-14T18:42:11.321Z,38.83
2017-11-14T18:44:38.979Z,36.73
2017-11-14T18:47:06.640Z,34.50
2017-11-14T18:49:34.228Z,32.97
2017-11-14T18:52:01.832Z,30.90
2017-11-14T18:54:30.027Z,38.87
2017-11-14T18:56:58.588Z,37.10
2017-11-14T18:59:27.355Z,37.27
2017-11-14T19:01:55.081Z,31.97
2017-11-14T19:04:22.699Z,30.70
2017-11-14T19:06:50.228Z,33.23
2017-11-14T19:09:18.232Z,30.67
2017-11-14T19:11:45.841Z,32.13
2017-11-14T19:14:13.412Z,36.03
2017-11-14T19:16:41.075Z,37.30
2017-11-14T19:19:08.754Z,40.93
2017-11-14T19:21:37.043Z,35.20
2017-11-14T19:24:05.355Z,30.83
2017-11-14T19:26:32.968Z,27.10
2017-11-14T19:29:00.499Z,28.40
2017-11-14T19:31:29.029Z,30.03
2017-11-14T19:33:56.592Z,30.10
2017-11-14T19:36:24.148Z,27.33
2017-11-14T19:38:51.778Z,27.93
2017-11-14T19:41:19.543Z,33.70
2017-11-14T19:43:47.233Z,30.67
2017-11-14T19:46:14.831Z,38.17
2017-11-14T19:48:42.380Z,31.33
2017-11-14T19:51:10.029Z,33.27
2017-11-14T19:53:37.630Z,32.57
2017-11-14T19:56:06.353Z,33.20
2017-11-14T19:58:34.708Z,38.67
2017-11-14T20:01:03.059Z,29.80
2017-11-14T20:03:30.666Z,38.50
2017-11-14T20:06:06.687Z,55.33
2017-11-14T20:08:34.282Z,47.90
2017-11-14T20:11:01.815Z,63.43
2017-11-14T20:13:29.487Z,97.43
2017-11-14T20:15:57.377Z,46.40
2017-11-14T20:18:24.939Z,51.00
2017-11-14T20:20:52.608Z,93.80
2017-11-14T20:23:20.280Z,49.63
2017-11-14T20:25:48.119Z,59.97
2017-11-14T20:28:16.611Z,74.30
2017-11-14T20:30:44.450Z,77.60
2017-11-14T20:33:12.089Z,88.53
2017-11-14T20:35:39.789Z,84.50
2017-11-14T20:38:07.418Z,76.57
2017-11-14T20:40:35.068Z,47.13
2017-11-14T20:43:02.663Z,113.60
2017-11-14T20:45:30.301Z,53.50
2017-11-14T20:47:57.893Z,34.43
2017-11-14T20:50:26.331Z,27.97
2017-11-14T20:52:53.973Z,26.00
2017-11-14T20:55:21.519Z,28.50
2017-11-14T20:57:49.095Z,30.00
2017-11-14T21:00:16.734Z,28.83
2017-11-14T21:02:44.310Z,27.30
2017-11-14T21:05:11.875Z,24.57
2017-11-14T21:07:39.482Z,25.20
2017-11-14T21:10:07.025Z,29.23
2017-11-14T21:12:34.555Z,32.27
2017-11-14T21:15:02.828Z,25.40
2017-11-14T21:17:30.385Z,28.50
2017-11-14T21:19:58.222Z,29.87
2017-11-14T21:22:25.828Z,25.80
2017-11-14T21:24:53.342Z,28.33
2017-11-14T21:27:20.969Z,28.97
2017-11-14T21:29:48.553Z,28.00
2017-11-14T21:32:16.959Z,28.90
2017-11-14T21:34:44.558Z,25.70
2017-11-14T21:37:12.375Z,31.67
2017-11-14T21:39:40.000Z,30.70
2017-11-14T21:42:08.052Z,24.03
2017-11-14T21:44:35.806Z,25.20
2017-11-14T21:47:03.470Z,24.53
2017-11-14T21:49:30.999Z,21.43
2017-11-14T21:51:58.562Z,19.40
2017-11-14T21:54:26.306Z,19.70
2017-11-14T21:56:54.948Z,19.20
2017-11-14T21:59:22.485Z,20.50
2017-11-14T22:01:50.107Z,19.80
2017-11-14T22:04:17.650Z,22.07
2017-11-14T22:06:45.403Z,19.60
2017-11-14T22:09:12.992Z,20.80
2017-11-14T22:11:40.510Z,19.97
2017-11-14T22:14:08.051Z,23.37
2017-11-14T22:16:36.118Z,22.60
2017-11-14T22:19:03.663Z,21.37
2017-11-14T22:21:35.435Z,23.77
2017-11-14T22:24:04.013Z,22.67
2017-11-14T22:26:33.318Z,19.03
2017-11-14T22:29:01.877Z,21.00
2017-11-14T22:31:29.595Z,24.17
2017-11-14T22:33:57.174Z,17.07
2017-11-14T22:36:24.968Z,25.13
2017-11-14T22:38:52.552Z,24.00
2017-11-14T22:41:20.175Z,19.00
2017-11-14T22:43:47.772Z,20.90
2017-11-14T22:46:15.371Z,21.47
2017-11-14T22:48:42.895Z,19.77
2017-11-14T22:51:10.530Z,24.43
2017-11-14T22:53:38.145Z,24.27
2017-11-14T22:56:05.728Z,20.10
2017-11-14T22:58:33.304Z,20.57
2017-11-14T23:01:01.068Z,19.80
2017-11-14T23:03:28.659Z,19.37
2017-11-14T23:05:56.649Z,22.87
2017-11-14T23:08:24.359Z,23.43
2017-11-14T23:10:51.884Z,21.60
2017-11-14T23:13:19.772Z,17.30
2017-11-14T23:15:47.430Z,21.07
2017-11-14T23:18:15.033Z,18.10
2017-11-14T23:20:42.859Z,18.97
2017-11-14T23:23:10.447Z,18.40
2017-11-14T23:25:38.019Z,18.97
2017-11-14T23:28:05.770Z,18.40
2017-11-14T23:30:33.452Z,17.87
2017-11-14T23:33:01.231Z,19.37
2017-11-14T23:35:29.036Z,17.90
2017-11-14T23:37:57.204Z,18.70
2017-11-14T23:40:25.027Z,16.60
2017-11-14T23:42:52.822Z,17.57
2017-11-14T23:45:22.083Z,17.10
2017-11-14T23:47:50.398Z,20.53
2017-11-14T23:50:18.165Z,16.47
2017-11-14T23:52:45.780Z,18.97
2017-11-14T23:55:14.483Z,21.60
2017-11-14T23:57:42.098Z,15.70
